Time;durP1;ratioP1;P1;durP2;ratioP2;P2;SDS_P1;SDS_P2;PMS_P1;PMS_P2;Temp;Humidity;BMP_temperature;BMP_pressure;BME280_temperature;BME280_humidity;BME280_pressure;Samples;Min_cycle;Max_cycle;Signal;HPM_P1;HPM_P2
2023/01/07 00:02:23;;;;;;;11.55;6.80;;;;;;;-144.31;100.00;58022.63;5047093;28;20045;-60
2023/01/07 00:04:49;;;;;;;14.95;6.95;;;;;;;-144.31;100.00;58022.63;5052300;28;20033;-59
2023/01/07 00:07:14;;;;;;;12.23;6.97;;;;;;;-144.31;100.00;58022.63;5053931;28;20102;-61
2023/01/07 00:09:40;;;;;;;12.10;6.50;;;;;;;-144.31;100.00;58022.63;5051650;28;20029;-61
2023/01/07 00:12:05;;;;;;;12.70;7.13;;;;;;;-144.31;100.00;58022.63;5045880;28;20044;-60
2023/01/07 00:14:30;;;;;;;10.23;5.88;;;;;;;-144.31;100.00;58022.63;5044100;28;20028;-60
2023/01/07 00:16:56;;;;;;;11.88;6.35;;;;;;;-144.31;100.00;58022.63;5052148;28;20076;-60
2023/01/07 00:19:23;;;;;;;15.98;7.97;;;;;;;-144.31;100.00;58022.63;5045056;28;20045;-60
2023/01/07 00:21:48;;;;;;;13.63;7.75;;;;;;;-144.31;100.00;58022.63;5052649;28;20040;-60
2023/01/07 00:24:13;;;;;;;13.27;7.78;;;;;;;-144.31;100.00;58022.63;5045687;28;20121;-61
2023/01/07 00:26:39;;;;;;;14.32;7.95;;;;;;;-144.31;100.00;58022.63;5046458;28;20067;-60
2023/01/07 00:29:05;;;;;;;13.00;7.80;;;;;;;-144.31;100.00;58022.63;5056511;28;20508;-60
2023/01/07 00:31:34;;;;;;;13.07;7.40;;;;;;;-144.31;100.00;58022.63;5044487;28;20052;-60
2023/01/07 00:36:31;;;;;;;12.57;7.38;;;;;;;-144.31;100.00;58022.63;5045112;28;20029;-60
2023/01/07 00:38:58;;;;;;;12.77;7.60;;;;;;;-144.31;100.00;58022.63;5044720;28;20033;-60
2023/01/07 00:41:24;;;;;;;12.10;6.88;;;;;;;-144.31;100.00;58022.63;5050209;28;20059;-60
2023/01/07 00:43:50;;;;;;;10.70;6.68;;;;;;;-144.31;100.00;58022.63;5044418;28;20493;-61
2023/01/07 00:46:15;;;;;;;13.45;7.22;;;;;;;-144.31;100.00;58022.63;5056091;28;20032;-60
2023/01/07 00:48:42;;;;;;;25.83;8.40;;;;;;;-144.31;100.00;58022.63;5046338;28;20388;-60
2023/01/07 00:51:09;;;;;;;13.27;6.78;;;;;;;-144.31;100.00;58022.63;5046518;28;20039;-59
2023/01/07 00:53:37;;;;;;;;;;;;;;;-144.31;100.00;58022.63;5052495;28;20098;-60
2023/01/07 00:56:03;;;;;;;14.88;7.20;;;;;;;-144.31;100.00;58022.63;5050515;28;20403;-60
2023/01/07 00:58:28;;;;;;;16.17;8.85;;;;;;;-144.31;100.00;58022.63;5034699;28;20466;-60
2023/01/07 01:00:58;;;;;;;16.83;8.43;;;;;;;-144.31;100.00;58022.63;5045707;28;20068;-60
2023/01/07 01:03:25;;;;;;;16.02;8.65;;;;;;;-144.31;100.00;58022.63;5051958;28;20040;-59
2023/01/07 01:05:50;;;;;;;17.30;8.33;;;;;;;-144.31;100.00;58022.63;5053596;28;20082;-59
2023/01/07 01:08:17;;;;;;;15.48;8.20;;;;;;;-144.31;100.00;58022.63;5043206;28;20032;-60
2023/01/07 01:10:46;;;;;;;14.32;8.23;;;;;;;-144.31;100.00;58022.63;5035639;28;20232;-61
2023/01/07 01:13:14;;;;;;;13.98;7.88;;;;;;;-144.31;100.00;58022.63;5055618;28;20452;-60
2023/01/07 01:15:42;;;;;;;13.60;7.95;;;;;;;-144.31;100.00;58022.63;5046187;28;20099;-60
2023/01/07 01:18:07;;;;;;;16.63;7.95;;;;;;;-144.31;100.00;58022.63;5048363;28;20392;-60
2023/01/07 01:20:33;;;;;;;14.50;7.78;;;;;;;-144.31;100.00;58022.63;5047339;28;20560;-60
2023/01/07 01:22:58;;;;;;;15.80;8.52;;;;;;;-144.31;100.00;58022.63;5053255;28;20044;-60
2023/01/07 01:25:24;;;;;;;16.27;8.20;;;;;;;-144.31;100.00;58022.63;5079637;28;20036;-60
2023/01/07 01:27:49;;;;;;;13.38;8.10;;;;;;;-144.31;100.00;58022.63;5042695;28;20033;-60
2023/01/07 01:30:15;;;;;;;13.20;7.78;;;;;;;-144.31;100.00;58022.63;5054606;28;20155;-60
2023/01/07 01:32:41;;;;;;;12.90;7.03;;;;;;;-144.31;100.00;58022.63;5051556;28;20052;-61
2023/01/07 01:35:07;;;;;;;14.75;6.68;;;;;;;-144.31;100.00;58022.63;5053062;28;20781;-60
2023/01/07 01:37:33;;;;;;;14.75;7.53;;;;;;;-144.31;100.00;58022.63;5052161;28;20052;-61
2023/01/07 01:40:02;;;;;;;13.45;6.88;;;;;;;-144.31;100.00;58022.63;5074031;28;20616;-60
2023/01/07 01:42:29;;;;;;;11.77;6.70;;;;;;;-144.31;100.00;58022.63;5048667;28;20129;-60
2023/01/07 01:44:57;;;;;;;11.50;6.75;;;;;;;-144.31;100.00;58022.63;5034874;28;20036;-59
2023/01/07 01:47:32;;;;;;;9.93;6.13;;;;;;;-144.31;100.00;58022.63;5043986;28;20498;-60
2023/01/07 01:50:16;;;;;;;11.73;6.18;;;;;;;-144.31;100.00;58022.63;5033272;28;20506;-60
2023/01/07 01:52:45;;;;;;;10.02;6.03;;;;;;;-144.31;100.00;58022.63;5043983;28;20303;-59
2023/01/07 01:55:13;;;;;;;10.90;6.93;;;;;;;-144.31;100.00;58022.63;5045755;28;20068;-60
2023/01/07 01:57:40;;;;;;;11.63;7.28;;;;;;;-144.31;100.00;58022.63;5054938;28;20036;-59
2023/01/07 02:00:07;;;;;;;14.32;7.28;;;;;;;-144.31;100.00;58022.63;5048247;28;20123;-59
2023/01/07 02:02:51;;;;;;;13.13;7.40;;;;;;;-144.31;100.00;58022.63;5049701;28;20045;-59
2023/01/07 02:05:17;;;;;;;12.88;7.32;;;;;;;-144.31;100.00;58022.63;5046666;28;20320;-59
2023/01/07 02:07:43;;;;;;;13.82;6.90;;;;;;;-144.31;100.00;58022.63;5053303;28;20032;-59
2023/01/07 02:10:15;;;;;;;11.20;7.25;;;;;;;-144.31;100.00;58022.63;5052207;28;20368;-59
2023/01/07 02:13:08;;;;;;;11.82;7.10;;;;;;;-144.31;100.00;58022.63;5035222;28;20082;-59
2023/01/07 02:15:50;;;;;;;15.40;6.70;;;;;;;-144.31;100.00;58022.63;5043645;28;20045;-59
2023/01/07 02:18:31;;;;;;;12.52;6.95;;;;;;;-144.31;100.00;58022.63;5051979;28;21518;-59
2023/01/07 02:21:09;;;;;;;9.98;6.28;;;;;;;-144.31;100.00;58022.63;5051812;28;20044;-60
2023/01/07 02:23:41;;;;;;;12.40;6.97;;;;;;;-144.31;100.00;58022.63;5052285;28;20165;-60
2023/01/07 02:26:34;;;;;;;9.63;6.20;;;;;;;-144.31;100.00;58022.63;5052930;28;20037;-60
2023/01/07 02:29:18;;;;;;;9.52;6.10;;;;;;;-144.31;100.00;58022.63;5052181;28;20037;-59
2023/01/07 02:32:02;;;;;;;9.75;6.03;;;;;;;-144.31;100.00;58022.63;5032871;28;20126;-59
2023/01/07 02:35:05;;;;;;;11.13;6.25;;;;;;;-144.31;100.00;58022.63;5054632;28;20270;-60
2023/01/07 02:38:01;;;;;;;12.77;6.78;;;;;;;-144.31;100.00;58022.63;5049963;28;20220;-59
2023/01/07 02:40:37;;;;;;;12.00;6.35;;;;;;;-144.31;100.00;58022.63;5048401;28;20037;-60
2023/01/07 02:43:20;;;;;;;14.23;7.40;;;;;;;-144.31;100.00;58022.63;5050003;28;20048;-60
2023/01/07 02:45:52;;;;;;;11.10;6.47;;;;;;;-144.31;100.00;58022.63;5043888;28;20485;-60
2023/01/07 02:48:20;;;;;;;10.90;6.53;;;;;;;-144.31;100.00;58022.63;5064320;28;20059;-60
2023/01/07 02:50:46;;;;;;;11.02;6.50;;;;;;;-144.31;100.00;58022.63;5052871;28;20520;-60
2023/01/07 02:53:16;;;;;;;10.93;6.18;;;;;;;-144.31;100.00;58022.63;5055501;28;20036;-59
2023/01/07 02:56:00;;;;;;;10.50;6.35;;;;;;;-144.31;100.00;58022.63;5048267;28;20056;-60
2023/01/07 02:58:32;;;;;;;12.77;7.22;;;;;;;-144.31;100.00;58022.63;5037364;28;20380;-59
2023/01/07 03:01:19;;;;;;;10.30;6.50;;;;;;;-144.31;100.00;58022.63;5048086;28;20577;-59
2023/01/07 03:04:03;;;;;;;11.07;6.65;;;;;;;-144.31;100.00;58022.63;5051018;28;20037;-60
2023/01/07 03:06:37;;;;;;;12.10;6.82;;;;;;;-144.31;100.00;58022.63;5055477;28;20497;-60
2023/01/07 03:09:18;;;;;;;11.82;6.10;;;;;;;-144.31;100.00;58022.63;5063645;28;20044;-59
2023/01/07 03:11:56;;;;;;;12.15;6.85;;;;;;;-144.31;100.00;58022.63;5059527;28;20044;-60
2023/01/07 03:14:33;;;;;;;13.50;7.13;;;;;;;-144.31;100.00;58022.63;5059118;28;20040;-59
2023/01/07 03:17:04;;;;;;;15.55;7.68;;;;;;;-144.31;100.00;58022.63;5045920;28;20047;-59
2023/01/07 03:19:33;;;;;;;15.52;7.43;;;;;;;-144.31;100.00;58022.63;5054511;28;20045;-60
2023/01/07 03:22:01;;;;;;;13.77;7.85;;;;;;;-144.31;100.00;58022.63;5062895;28;20051;-59
2023/01/07 03:24:30;;;;;;;14.25;7.32;;;;;;;-144.31;100.00;58022.63;5063848;28;20485;-60
2023/01/07 03:26:57;;;;;;;13.45;6.53;;;;;;;-144.31;100.00;58022.63;5058667;28;20473;-59
2023/01/07 03:29:23;;;;;;;11.13;6.57;;;;;;;-144.31;100.00;58022.63;5048189;28;20024;-59
2023/01/07 03:32:07;;;;;;;10.80;6.47;;;;;;;-144.31;100.00;58022.63;5053204;28;20040;-59
2023/01/07 03:34:33;;;;;;;15.93;7.80;;;;;;;-144.31;100.00;58022.63;5054719;28;20256;-59
2023/01/07 03:37:03;;;;;;;13.30;6.83;;;;;;;-144.31;100.00;58022.63;5044481;28;20082;-59
2023/01/07 03:39:30;;;;;;;12.75;7.05;;;;;;;-144.31;100.00;58022.63;5061230;28;20040;-59
2023/01/07 03:44:44;;;;;;;10.80;5.70;;;;;;;-144.31;100.00;58022.63;5046212;28;20524;-59
2023/01/07 03:47:10;;;;;;;10.73;5.90;;;;;;;-144.31;100.00;58022.63;5052168;28;20445;-59
2023/01/07 03:49:36;;;;;;;9.13;5.60;;;;;;;-144.31;100.00;58022.63;5054697;28;20036;-59
2023/01/07 03:52:02;;;;;;;11.90;6.25;;;;;;;-144.31;100.00;58022.63;5053034;28;20032;-61
2023/01/07 03:54:28;;;;;;;10.53;5.33;;;;;;;-144.31;100.00;58022.63;5052135;28;20056;-59
2023/01/07 03:56:54;;;;;;;11.98;5.63;;;;;;;-144.31;100.00;58022.63;5046324;28;20033;-59
2023/01/07 03:59:20;;;;;;;10.52;6.07;;;;;;;-144.31;100.00;58022.63;5070057;28;20040;-59
2023/01/07 04:01:45;;;;;;;9.55;5.57;;;;;;;-144.31;100.00;58022.63;5027989;28;20090;-59
2023/01/07 04:04:11;;;;;;;8.85;5.25;;;;;;;-144.31;100.00;58022.63;5055586;28;20036;-60
2023/01/07 04:06:37;;;;;;;9.73;5.22;;;;;;;-144.31;100.00;58022.63;5051998;28;20041;-59
2023/01/07 04:09:04;;;;;;;7.93;5.03;;;;;;;-144.31;100.00;58022.63;5048498;28;20041;-59
2023/01/07 04:11:32;;;;;;;11.40;5.53;;;;;;;-144.31;100.00;58022.63;5054803;28;20396;-60
2023/01/07 04:14:00;;;;;;;9.52;5.35;;;;;;;-144.31;100.00;58022.63;5076838;28;20045;-59
2023/01/07 04:16:28;;;;;;;7.88;4.88;;;;;;;-144.31;100.00;58022.63;5063646;28;20032;-59
2023/01/07 04:18:54;;;;;;;8.80;4.60;;;;;;;-144.31;100.00;58022.63;5056928;28;20049;-59
2023/01/07 04:21:20;;;;;;;8.55;4.32;;;;;;;-144.31;100.00;58022.63;5047647;28;20289;-59
2023/01/07 04:23:45;;;;;;;10.30;5.35;;;;;;;-144.31;100.00;58022.63;5055622;28;20095;-59
2023/01/07 04:26:11;;;;;;;6.22;4.38;;;;;;;-144.31;100.00;58022.63;5046880;28;20043;-59
2023/01/07 04:28:38;;;;;;;7.72;4.85;;;;;;;-144.31;100.00;58022.63;5064608;28;20033;-59
2023/01/07 04:31:03;;;;;;;9.27;4.63;;;;;;;-144.31;100.00;58022.63;5056657;28;20064;-59
2023/01/07 04:33:32;;;;;;;8.30;5.10;;;;;;;-144.31;100.00;58022.63;5053761;28;20485;-59
2023/01/07 04:35:58;;;;;;;8.77;4.38;;;;;;;-144.31;100.00;58022.63;5059248;28;20037;-59
2023/01/07 04:38:24;;;;;;;7.78;4.78;;;;;;;-144.31;100.00;58022.63;5031775;28;20036;-59
2023/01/07 04:40:52;;;;;;;11.88;5.43;;;;;;;-144.31;100.00;58022.63;5046911;28;20515;-59
2023/01/07 04:43:18;;;;;;;14.48;6.07;;;;;;;-144.31;100.00;58022.63;5053275;28;20048;-58
2023/01/07 04:45:44;;;;;;;7.75;5.53;;;;;;;-144.31;100.00;58022.63;5046386;28;20031;-59
2023/01/07 04:48:09;;;;;;;9.27;5.60;;;;;;;-144.31;100.00;58022.63;5052874;28;20041;-59
2023/01/07 04:50:35;;;;;;;8.82;5.18;;;;;;;-144.31;100.00;58022.63;5046249;28;20112;-59
2023/01/07 04:53:00;;;;;;;7.85;4.93;;;;;;;-144.31;100.00;58022.63;5030278;28;20044;-60
2023/01/07 04:55:30;;;;;;;8.25;5.30;;;;;;;-144.31;100.00;58022.63;5082670;28;20033;-59
2023/01/07 04:57:56;;;;;;;7.63;4.93;;;;;;;-144.31;100.00;58022.63;5053505;28;20044;-59
2023/01/07 05:00:21;;;;;;;11.27;5.90;;;;;;;-144.31;100.00;58022.63;5053822;28;20044;-60
2023/01/07 05:02:49;;;;;;;;;;;;;;;-144.31;100.00;58022.63;5035348;28;20118;-60
2023/01/07 05:05:15;;;;;;;7.75;4.75;;;;;;;-144.31;100.00;58022.63;5079128;28;20003;-59
2023/01/07 05:07:42;;;;;;;10.40;4.95;;;;;;;-144.31;100.00;58022.63;5050502;28;20363;-59
2023/01/07 05:10:08;;;;;;;10.70;5.28;;;;;;;-144.31;100.00;58022.63;5047645;28;20123;-60
2023/01/07 05:12:34;;;;;;;8.77;5.35;;;;;;;-144.31;100.00;58022.63;5053359;28;20043;-59
2023/01/07 05:15:05;;;;;;;8.98;4.60;;;;;;;-144.31;100.00;58022.63;5040425;28;20047;-59
2023/01/07 05:17:31;;;;;;;10.48;4.68;;;;;;;-144.31;100.00;58022.63;5047870;28;20187;-60
2023/01/07 05:19:57;;;;;;;7.37;4.57;;;;;;;-144.31;100.00;58022.63;5053650;28;20040;-59
2023/01/07 05:22:23;;;;;;;7.75;4.40;;;;;;;-144.31;100.00;58022.63;5045121;28;20052;-60
2023/01/07 05:24:49;;;;;;;11.73;5.03;;;;;;;-144.31;100.00;58022.63;5053775;28;20471;-61
2023/01/07 05:27:16;;;;;;;8.80;5.00;;;;;;;-144.31;100.00;58022.63;5051247;28;20051;-60
2023/01/07 05:29:41;;;;;;;8.48;4.25;;;;;;;-144.31;100.00;58022.63;5049296;28;20044;-60
2023/01/07 05:32:07;;;;;;;6.70;4.20;;;;;;;-144.31;100.00;58022.63;5064529;28;20072;-60
2023/01/07 05:34:33;;;;;;;10.07;4.80;;;;;;;-144.31;100.00;58022.63;5050274;28;20273;-59
2023/01/07 05:36:59;;;;;;;8.98;5.25;;;;;;;-144.31;100.00;58022.63;5044191;28;20290;-60
2023/01/07 05:39:25;;;;;;;7.60;4.07;;;;;;;-144.31;100.00;58022.63;5049916;28;20041;-60
2023/01/07 05:41:51;;;;;;;7.45;4.45;;;;;;;-144.31;100.00;58022.63;5044739;28;20353;-59
2023/01/07 05:44:16;;;;;;;9.13;4.10;;;;;;;-144.31;100.00;58022.63;5051848;28;20477;-60
2023/01/07 05:46:42;;;;;;;10.30;4.78;;;;;;;-144.31;100.00;58022.63;5042586;28;20074;-60
2023/01/07 05:49:08;;;;;;;7.50;4.72;;;;;;;-144.31;100.00;58022.63;5045171;28;20100;-60
2023/01/07 05:51:34;;;;;;;7.65;4.63;;;;;;;-144.31;100.00;58022.63;5056587;28;20037;-59
2023/01/07 05:53:59;;;;;;;7.85;4.40;;;;;;;-144.31;100.00;58022.63;5045865;28;20048;-60
2023/01/07 05:56:28;;;;;;;8.80;4.85;;;;;;;-144.31;100.00;58022.63;5055056;28;20369;-59
2023/01/07 05:58:53;;;;;;;6.78;4.70;;;;;;;-144.31;100.00;58022.63;5047611;28;20063;-59
2023/01/07 06:01:19;;;;;;;6.10;4.25;;;;;;;-144.31;100.00;58022.63;5043925;28;20052;-59
2023/01/07 06:03:44;;;;;;;9.05;4.63;;;;;;;-144.31;100.00;58022.63;5048063;28;20037;-59
2023/01/07 06:06:09;;;;;;;7.18;4.57;;;;;;;-144.31;100.00;58022.63;5044173;28;21544;-59
2023/01/07 06:08:36;;;;;;;9.20;4.70;;;;;;;-144.31;100.00;58022.63;5048468;28;20036;-59
2023/01/07 06:11:03;;;;;;;8.30;4.40;;;;;;;-144.31;100.00;58022.63;5043350;28;20124;-60
2023/01/07 06:13:29;;;;;;;7.88;4.35;;;;;;;-144.31;100.00;58022.63;5045440;28;20032;-60
2023/01/07 06:16:06;;;;;;;7.43;4.45;;;;;;;-144.31;100.00;58022.63;5051521;28;20839;-60
2023/01/07 06:18:32;;;;;;;6.60;4.22;;;;;;;-144.31;100.00;58022.63;5045957;28;20043;-59
2023/01/07 06:20:57;;;;;;;5.93;3.90;;;;;;;-144.31;100.00;58022.63;5055741;28;20032;-60
2023/01/07 06:23:23;;;;;;;6.68;4.03;;;;;;;-144.31;100.00;58022.63;5050909;28;20032;-61
2023/01/07 06:25:55;;;;;;;8.10;4.25;;;;;;;-144.31;100.00;58022.63;5051901;28;20586;-60
2023/01/07 06:28:23;;;;;;;5.78;4.03;;;;;;;-144.31;100.00;58022.63;5055741;28;20045;-61
2023/01/07 06:30:49;;;;;;;6.50;3.80;;;;;;;-144.31;100.00;58022.63;5048586;28;20028;-59
2023/01/07 06:33:15;;;;;;;7.20;4.22;;;;;;;-144.31;100.00;58022.63;5054181;28;20051;-59
2023/01/07 06:35:43;;;;;;;6.30;4.47;;;;;;;-144.31;100.00;58022.63;5049832;28;20044;-60
2023/01/07 06:38:08;;;;;;;;;;;;;;;-144.31;100.00;58022.63;5048505;28;20051;-59
2023/01/07 06:40:33;;;;;;;6.90;4.00;;;;;;;-144.31;100.00;58022.63;5053841;28;19921;-60
2023/01/07 06:42:59;;;;;;;6.70;4.40;;;;;;;-144.31;100.00;58022.63;5050951;28;20041;-61
2023/01/07 06:45:24;;;;;;;6.78;3.80;;;;;;;-144.31;100.00;58022.63;5055120;28;20056;-61
2023/01/07 06:47:50;;;;;;;5.55;3.50;;;;;;;-144.31;100.00;58022.63;5050580;28;20028;-61
2023/01/07 06:50:15;;;;;;;12.65;8.70;;;;;;;-144.31;100.00;58022.63;5048455;28;20051;-61
2023/01/07 06:52:41;;;;;;;8.63;6.07;;;;;;;-144.31;100.00;58022.63;5055254;28;20484;-60
2023/01/07 06:55:07;;;;;;;11.82;7.20;;;;;;;-144.31;100.00;58022.63;5048384;28;20489;-60
2023/01/07 06:57:32;;;;;;;8.05;5.68;;;;;;;-144.31;100.00;58022.63;5054100;28;20033;-60
2023/01/07 06:59:58;;;;;;;6.15;4.57;;;;;;;-144.31;100.00;58022.63;5047336;28;20041;-60
2023/01/07 07:02:25;;;;;;;6.50;3.90;;;;;;;-144.31;100.00;58022.63;5050427;28;20099;-59
2023/01/07 07:04:50;;;;;;;;;;;;;;;-144.31;100.00;58022.63;5053245;28;20082;-59
2023/01/07 07:07:16;;;;;;;6.05;3.72;;;;;;;-144.31;100.00;58022.63;5051808;28;20288;-59
2023/01/07 07:09:41;;;;;;;5.97;3.47;;;;;;;-144.31;100.00;58022.63;5053842;28;20458;-60
2023/01/07 07:12:07;;;;;;;8.20;3.80;;;;;;;-144.31;100.00;58022.63;5051307;28;20037;-60
2023/01/07 07:14:33;;;;;;;7.85;4.30;;;;;;;-144.31;100.00;58022.63;5048895;28;20036;-60
2023/01/07 07:17:02;;;;;;;7.03;4.05;;;;;;;-144.31;100.00;58022.63;5055839;28;20070;-59
2023/01/07 07:19:27;;;;;;;7.47;3.78;;;;;;;-144.31;100.00;58022.63;5050375;28;20029;-60
2023/01/07 07:21:53;;;;;;;6.72;3.50;;;;;;;-144.31;100.00;58022.63;5047721;28;20040;-59
2023/01/07 07:24:18;;;;;;;6.50;3.60;;;;;;;-144.31;100.00;58022.63;5052956;28;20041;-59
2023/01/07 07:26:44;;;;;;;6.75;3.65;;;;;;;-144.31;100.00;58022.63;5047580;28;20503;-59
2023/01/07 07:29:09;;;;;;;5.60;3.50;;;;;;;-144.31;100.00;58022.63;5053944;28;20501;-59
2023/01/07 07:31:35;;;;;;;5.47;3.45;;;;;;;-144.31;100.00;58022.63;5047865;28;20394;-59
2023/01/07 07:34:01;;;;;;;9.65;4.32;;;;;;;-144.31;100.00;58022.63;5047220;28;20489;-59
2023/01/07 07:36:26;;;;;;;7.00;4.03;;;;;;;-144.31;100.00;58022.63;5052896;28;20123;-60
2023/01/07 07:38:52;;;;;;;8.07;4.18;;;;;;;-144.31;100.00;58022.63;5048248;28;20078;-60
2023/01/07 07:41:17;;;;;;;7.47;4.05;;;;;;;-144.31;100.00;58022.63;5054525;28;20591;-59
2023/01/07 07:43:43;;;;;;;5.05;3.38;;;;;;;-144.31;100.00;58022.63;5049288;28;20028;-60
2023/01/07 07:46:08;;;;;;;7.38;3.60;;;;;;;-144.31;100.00;58022.63;5045935;28;20130;-59
2023/01/07 07:48:33;;;;;;;5.63;3.33;;;;;;;-144.31;100.00;58022.63;5051997;28;20541;-60
2023/01/07 07:50:59;;;;;;;4.45;3.20;;;;;;;-144.31;100.00;58022.63;5047155;28;20059;-59
2023/01/07 07:53:24;;;;;;;4.93;3.42;;;;;;;-144.31;100.00;58022.63;5052328;28;20044;-60
2023/01/07 07:55:52;;;;;;;4.50;3.10;;;;;;;-144.31;100.00;58022.63;5046831;28;20036;-60
2023/01/07 07:58:17;;;;;;;5.65;3.70;;;;;;;-144.31;100.00;58022.63;5049359;28;20290;-59
2023/01/07 08:00:43;;;;;;;5.05;3.17;;;;;;;-144.31;100.00;58022.63;5052114;28;20065;-60
2023/01/07 08:03:09;;;;;;;5.70;3.95;;;;;;;-144.31;100.00;58022.63;5046532;28;20405;-60
2023/01/07 08:05:35;;;;;;;11.73;4.93;;;;;;;-144.31;100.00;58022.63;5054882;28;20071;-60
2023/01/07 08:08:00;;;;;;;7.95;4.00;;;;;;;-144.31;100.00;58022.63;5044651;28;20462;-60
2023/01/07 08:10:27;;;;;;;5.95;3.70;;;;;;;-144.31;100.00;58022.63;5046615;28;20570;-60
2023/01/07 08:12:53;;;;;;;5.13;3.58;;;;;;;-144.31;100.00;58022.63;5052930;28;20071;-60
2023/01/07 08:15:18;;;;;;;5.28;3.70;;;;;;;-144.31;100.00;58022.63;5050513;28;20037;-59
2023/01/07 08:17:44;;;;;;;7.72;3.85;;;;;;;-144.31;100.00;58022.63;5055359;28;20041;-60
2023/01/07 08:20:10;;;;;;;5.70;3.72;;;;;;;-144.31;100.00;58022.63;5051388;28;20321;-60
2023/01/07 08:22:35;;;;;;;5.85;3.60;;;;;;;-144.31;100.00;58022.63;5050789;28;20595;-60
2023/01/07 08:25:01;;;;;;;7.55;3.67;;;;;;;-144.31;100.00;58022.63;5054061;28;20490;-60
2023/01/07 08:27:27;;;;;;;9.43;4.20;;;;;;;-144.31;100.00;58022.63;5048950;28;20040;-60
2023/01/07 08:29:53;;;;;;;6.45;3.92;;;;;;;-144.31;100.00;58022.63;5052177;28;20051;-59
2023/01/07 08:32:19;;;;;;;5.88;3.75;;;;;;;-144.31;100.00;58022.63;5050556;28;20548;-59
2023/01/07 08:34:45;;;;;;;5.53;3.50;;;;;;;-144.31;100.00;58022.63;5046716;28;20033;-59
2023/01/07 08:37:10;;;;;;;5.28;3.17;;;;;;;-144.31;100.00;58022.63;5050939;28;20048;-61
2023/01/07 08:39:36;;;;;;;4.78;3.22;;;;;;;-144.31;100.00;58022.63;5045995;28;20036;-60
2023/01/07 08:42:01;;;;;;;6.18;3.70;;;;;;;-144.31;100.00;58022.63;5054103;28;20054;-59
2023/01/07 08:44:27;;;;;;;4.88;3.50;;;;;;;-144.31;100.00;58022.63;5056431;28;20536;-60
2023/01/07 08:46:53;;;;;;;6.38;4.03;;;;;;;-144.31;100.00;58022.63;5048649;28;20091;-58
2023/01/07 08:49:19;;;;;;;4.43;3.15;;;;;;;-144.31;100.00;58022.63;5050381;28;20394;-59
2023/01/07 08:51:45;;;;;;;5.53;3.70;;;;;;;-144.31;100.00;58022.63;5045874;28;20037;-59
2023/01/07 08:54:12;;;;;;;5.22;3.53;;;;;;;-144.31;100.00;58022.63;5056304;28;20226;-60
2023/01/07 08:56:38;;;;;;;5.47;3.65;;;;;;;-144.31;100.00;58022.63;5046296;28;20090;-60
2023/01/07 08:59:05;;;;;;;5.10;3.33;;;;;;;-144.31;100.00;58022.63;5048357;28;20043;-62
2023/01/07 09:01:31;;;;;;;4.10;3.00;;;;;;;-144.31;100.00;58022.63;5059111;28;20520;-59
2023/01/07 09:03:56;;;;;;;5.22;3.25;;;;;;;-144.31;100.00;58022.63;5048947;28;20029;-59
2023/01/07 09:06:25;;;;;;;4.53;3.30;;;;;;;-144.31;100.00;58022.63;5055547;28;20370;-61
2023/01/07 09:08:50;;;;;;;4.95;3.20;;;;;;;-144.31;100.00;58022.63;5049874;28;20031;-59
2023/01/07 09:11:20;;;;;;;6.25;3.60;;;;;;;-144.31;100.00;58022.63;5042622;28;20043;-59
2023/01/07 09:13:45;;;;;;;5.28;3.38;;;;;;;-144.31;100.00;58022.63;5055384;28;20107;-60
2023/01/07 09:16:11;;;;;;;5.80;2.75;;;;;;;-144.31;100.00;58022.63;5048452;28;20041;-60
2023/01/07 09:18:36;;;;;;;5.55;3.30;;;;;;;-144.31;100.00;58022.63;5053107;28;20040;-60
2023/01/07 09:21:02;;;;;;;4.05;2.97;;;;;;;-144.31;100.00;58022.63;5046005;28;20452;-60
2023/01/07 09:23:27;;;;;;;4.82;2.90;;;;;;;-144.31;100.00;58022.63;5041904;28;20563;-60
2023/01/07 09:25:55;;;;;;;4.88;2.80;;;;;;;-144.31;100.00;58022.63;5053044;28;20045;-60
2023/01/07 09:28:21;;;;;;;4.15;2.60;;;;;;;-144.31;100.00;58022.63;5044567;28;20075;-60
2023/01/07 09:30:46;;;;;;;4.43;2.70;;;;;;;-144.31;100.00;58022.63;5058039;28;20141;-60
2023/01/07 09:33:12;;;;;;;5.00;2.67;;;;;;;-144.31;100.00;58022.63;5048417;28;20082;-60
2023/01/07 09:35:37;;;;;;;4.50;2.58;;;;;;;-144.31;100.00;58022.63;5050918;28;20474;-59
2023/01/07 09:38:03;;;;;;;6.30;2.63;;;;;;;-144.31;100.00;58022.63;5055919;28;20052;-60
2023/01/07 09:40:36;;;;;;;4.10;2.70;;;;;;;-144.31;100.00;58022.63;5050069;28;20047;-59
2023/01/07 09:43:07;;;;;;;5.05;3.15;;;;;;;-144.31;100.00;58022.63;5045651;28;20036;-60
2023/01/07 09:45:41;;;;;;;4.45;2.78;;;;;;;-144.31;100.00;58022.63;5053045;28;20040;-59
2023/01/07 09:48:17;;;;;;;6.22;2.97;;;;;;;-144.31;100.00;58022.63;5045272;28;20048;-59
2023/01/07 09:50:50;;;;;;;4.72;2.67;;;;;;;-144.31;100.00;58022.63;5052855;28;20093;-59
2023/01/07 09:53:21;;;;;;;5.63;2.47;;;;;;;-144.31;100.00;58022.63;5046066;28;20090;-60
2023/01/07 09:55:49;;;;;;;6.70;3.13;;;;;;;-144.31;100.00;58022.63;5045281;28;20614;-59
2023/01/07 09:58:17;;;;;;;6.78;3.00;;;;;;;-144.31;100.00;58022.63;5052954;28;20033;-59
2023/01/07 10:00:52;;;;;;;4.50;3.20;;;;;;;-144.31;100.00;58022.63;5047912;28;20036;-59
2023/01/07 10:03:45;;;;;;;5.18;3.72;;;;;;;-144.31;100.00;58022.63;5048023;28;20048;-61
2023/01/07 10:06:17;;;;;;;9.45;6.68;;;;;;;-144.31;100.00;58022.63;5052800;28;20049;-60
2023/01/07 10:09:04;;;;;;;8.38;6.25;;;;;;;-144.31;100.00;58022.63;5047192;28;20127;-60
2023/01/07 10:11:51;;;;;;;4.93;3.70;;;;;;;-144.31;100.00;58022.63;5049229;28;20094;-59
2023/01/07 10:14:48;;;;;;;4.38;2.85;;;;;;;-144.31;100.00;58022.63;5052678;28;20045;-59
2023/01/07 10:17:18;;;;;;;;;;;;;;;-144.31;100.00;58022.63;5079096;28;20067;-59
2023/01/07 10:19:51;;;;;;;5.45;3.15;;;;;;;-144.31;100.00;58022.63;5047536;28;20538;-59
2023/01/07 10:22:36;;;;;;;4.60;3.05;;;;;;;-144.31;100.00;58022.63;5056045;28;20128;-61
2023/01/07 10:25:33;;;;;;;4.53;3.15;;;;;;;-144.31;100.00;58022.63;5046486;28;20446;-61
2023/01/07 10:28:05;;;;;;;4.72;3.30;;;;;;;-144.31;100.00;58022.63;5035550;28;20388;-59
2023/01/07 10:30:39;;;;;;;4.93;3.30;;;;;;;-144.31;100.00;58022.63;5055763;28;20378;-59
2023/01/07 10:33:27;;;;;;;5.63;3.53;;;;;;;-144.31;100.00;58022.63;5051676;28;20063;-60
2023/01/07 10:36:27;;;;;;;6.18;3.65;;;;;;;-144.31;100.00;58022.63;5047371;28;20083;-61
2023/01/07 10:39:04;;;;;;;5.55;3.40;;;;;;;-144.31;100.00;58022.63;5057306;28;20052;-60
2023/01/07 10:41:42;;;;;;;5.13;3.35;;;;;;;-144.31;100.00;58022.63;5049126;28;20117;-60
2023/01/07 10:44:24;;;;;;;5.15;3.40;;;;;;;-144.31;100.00;58022.63;5047665;28;20037;-60
2023/01/07 10:47:12;;;;;;;4.85;3.25;;;;;;;-144.31;100.00;58022.63;5052351;28;20036;-61
2023/01/07 10:49:56;;;;;;;5.82;3.17;;;;;;;-144.31;100.00;58022.63;5048521;28;20464;-59
2023/01/07 10:52:45;;;;;;;6.05;3.08;;;;;;;-144.31;100.00;58022.63;5047075;28;20117;-59
2023/01/07 10:55:10;;;;;;;6.40;3.50;;;;;;;-144.31;100.00;58022.63;5049813;28;20128;-60
2023/01/07 10:57:51;;;;;;;6.30;3.72;;;;;;;-144.31;100.00;58022.63;5046372;28;20071;-59
2023/01/07 11:00:17;;;;;;;5.80;3.80;;;;;;;-144.31;100.00;58022.63;5045662;28;20029;-60
2023/01/07 11:02:50;;;;;;;6.05;3.75;;;;;;;-144.31;100.00;58022.63;5050972;28;20528;-60
2023/01/07 11:05:20;;;;;;;5.30;3.60;;;;;;;-144.31;100.00;58022.63;5044163;28;20045;-59
2023/01/07 11:08:00;;;;;;;6.70;3.92;;;;;;;-144.31;100.00;58022.63;5050202;28;20040;-60
2023/01/07 11:10:33;;;;;;;5.40;3.70;;;;;;;-144.31;100.00;58022.63;5055253;28;20052;-59
2023/01/07 11:13:04;;;;;;;6.57;4.32;;;;;;;-144.31;100.00;58022.63;5046760;28;20127;-59
2023/01/07 11:15:35;;;;;;;6.90;4.13;;;;;;;-144.31;100.00;58022.63;5055806;28;20550;-59
2023/01/07 11:18:21;;;;;;;7.00;4.55;;;;;;;-144.31;100.00;58022.63;5050112;28;20048;-60
2023/01/07 11:20:52;;;;;;;9.32;4.78;;;;;;;-144.31;100.00;58022.63;5050407;28;20159;-59
2023/01/07 11:23:38;;;;;;;6.70;4.53;;;;;;;-144.31;100.00;58022.63;5055282;28;20563;-59